• Join FlightAware (Why Join?)
  • Login
  • US Flag 
06:24PM EDT


 

Airport Tracker/Info


-or-


 

Live Flight TrackerFlight Track Log ✈ DAL1515 ✈ 29-Aug-2013 ✈ KATL - KALB

Flight Track Log - Related Links

Times and Time Zones

All times are in EDT time to prevent confusion due to time zone crossing. See the DAL1515 flight status page for this flight to view local times or setup timezone preferences in your user account.

Time Position Orientation Groundspeed Altitude Reporting Facility
EDT Latitude Longitude Course Direction KTS MPH feet Rate Location/Type
09:31PM 33.6517 -84.4806 North 450 518 2,300  Level Atlanta Center
09:32PM 33.6847 -84.5606 296° West 361 415 4,200 2,160 Climbing Atlanta Center
09:33PM 33.7450 -84.5858 341° North 238 274 6,700 2,460 Climbing Atlanta Center
09:34PM 33.9084 -84.2418 320° Northwest  Level FlightAware Approximate
09:34PM 33.8244 -84.5614 14° North 278 320 9,200  Level Atlanta Center
09:35PM 34.0164 -84.2667 North  Level FlightAware Approximate
09:35PM 33.8558 -84.5117 53° Northeast 310 357 11,300  Level Atlanta Center
09:36PM 34.1318 -84.2667 North  Level FlightAware Approximate
09:36PM 33.9272 -84.4194 47° Northeast 324 373 12,500  Level Atlanta Center
09:37PM 34.2472 -84.2667 North  Level FlightAware Approximate
09:37PM 34.0192 -84.3722 23° Northeast 350 403 13,500  Level Atlanta Center
09:38PM 34.1300 -84.3375 15° North 380 437 15,500 1,980 Climbing Atlanta Center
09:39PM 34.2469 -84.2978 16° North 397 457 17,500 2,100 Climbing Atlanta Center
09:40PM 34.3575 -84.2653 14° North 397 457 19,800 2,100 Climbing Atlanta Center
09:41PM 34.4661 -84.2403 11° North 403 464 21,800 1,920 Climbing Atlanta Center
09:42PM 34.5789 -84.2128 11° North 403 464 23,700 1,320 Climbing Atlanta Center
09:43PM 34.6750 -84.1928 10° North 393 452 24,500 900 Climbing Atlanta Center
09:44PM 34.7939 -84.1653 11° North 400 460 25,500 1,140 Climbing Atlanta Center
09:45PM 34.9086 -84.1375 11° North 416 479 26,800 1,320 Climbing Atlanta Center
09:46PM 35.0256 -84.1072 12° North 421 484 28,200 1,080 Climbing Atlanta Center
09:47PM 35.1444 -84.0794 11° North 426 490 29,000 960 Climbing Atlanta Center
09:48PM 35.2614 -84.0489 12° North 431 496 30,200 1,080 Climbing Atlanta Center
09:49PM 35.3783 -84.0208 11° North 431 496 31,200 960 Climbing Atlanta Center
09:50PM 35.4972 -83.9928 11° North 431 496 32,200 900 Climbing Atlanta Center
09:51PM 35.6119 -83.9672 10° North 431 496 33,000 360 Climbing Atlanta Center
09:52PM 35.7308 -83.9364 12° North 431 496 33,000  Level Atlanta Center
09:53PM 35.8475 -83.9081 11° North 431 496 33,000  Level Atlanta Center
09:54PM 35.9622 -83.8592 19° North 426 490 33,000  Level Atlanta Center
09:55PM 36.0706 -83.7922 27° Northeast 426 490 33,000  Level Atlanta Center
09:56PM 36.1761 -83.7208 29° Northeast 439 505 33,000  Level Indianapolis Center
09:57PM 36.2839 -83.6514 27° Northeast 439 505 33,000  Level Indianapolis Center
09:58PM 36.4144 -83.5675 27° Northeast 440 506 33,000  Level Indianapolis Center
09:59PM 36.5253 -83.4986 27° Northeast 440 506 33,000  Level Indianapolis Center
10:00PM 36.6347 -83.4278 27° Northeast 440 506 33,000  Level Indianapolis Center
10:01PM 36.7339 -83.3358 37° Northeast 442 509 33,000  Level Indianapolis Center
10:02PM 36.8328 -83.2431 37° Northeast 440 506 33,000  Level Indianapolis Center
10:03PM 36.9294 -83.1525 37° Northeast 430 495 33,000  Level Indianapolis Center
10:04PM 37.0281 -83.0608 37° Northeast 435 501 33,000  Level Indianapolis Center
10:05PM 37.1247 -82.9675 38° Northeast 431 496 33,000  Level Indianapolis Center
10:06PM 37.2183 -82.8761 38° Northeast 423 487 33,000  Level Indianapolis Center
10:07PM 37.3128 -82.7858 37° Northeast 424 488 33,000  Level Indianapolis Center
10:08PM 37.4058 -82.6958 38° Northeast 421 484 33,000  Level Indianapolis Center
10:09PM 37.4972 -82.6069 38° Northeast 414 476 33,000 360 Level Indianapolis Center
10:10PM 37.5886 -82.5181 38° Northeast 414 476 33,800 720 Climbing Indianapolis Center
10:11PM 37.6786 -82.4292 38° Northeast 411 473 34,500 480 Climbing Indianapolis Center
10:12PM 37.7689 -82.3417 37° Northeast 407 468 34,900 240 Climbing Indianapolis Center
10:13PM 37.8656 -82.2283 43° Northeast 405 466 35,000  Climbing Indianapolis Center
10:14PM 37.9419 -82.1294 46° Northeast 414 476 35,000  Level Indianapolis Center
10:15PM 38.0222 -82.0258 45° Northeast 413 475 35,000  Level Indianapolis Center
10:16PM 38.1025 -81.9217 46° Northeast 413 475 35,000  Level Indianapolis Center
10:17PM 38.1828 -81.8183 45° Northeast 411 473 35,000  Level Indianapolis Center
10:19PM 38.2600 -81.7156 46° Northeast 404 465 35,000  Level Indianapolis Center
10:20PM 38.3375 -81.6136 46° Northeast 403 464 35,000  Level Indianapolis Center
10:21PM 38.4144 -81.5103 46° Northeast 403 464 35,000  Level Indianapolis Center
10:22PM 38.5056 -81.3867 47° Northeast 404 465 35,000  Level Indianapolis Center
10:23PM 38.5811 -81.2839 47° Northeast 402 463 35,000  Level Indianapolis Center
10:24PM 38.6575 -81.1839 46° Northeast 398 458 35,000  Level Indianapolis Center
10:25PM 38.7328 -81.0822 46° Northeast 394 453 35,000  Level Indianapolis Center
10:26PM 38.8075 -80.9800 47° Northeast 395 455 35,000  Level Indianapolis Center
10:27PM 38.8822 -80.8792 46° Northeast 392 451 35,000  Level Indianapolis Center
10:28PM 38.9569 -80.7775 47° Northeast 392 451 35,000  Level Indianapolis Center
10:29PM 39.0306 -80.6756 47° Northeast 389 448 35,000  Level Indianapolis Center
10:30PM 39.1053 -80.5733 47° Northeast 391 450 35,000  Level Indianapolis Center
10:31PM 39.1956 -80.4531 46° Northeast 391 450 35,000  Level Indianapolis Center
10:32PM 39.2683 -80.3522 47° Northeast 385 443 35,000  Level Indianapolis Center
10:33PM 39.3431 -80.2503 47° Northeast 389 448 35,000  Level Indianapolis Center
10:34PM 39.4158 -80.1483 47° Northeast 386 444 35,000  Level Indianapolis Center
10:35PM 39.4889 -80.0469 47° Northeast 385 443 35,000  Level Indianapolis Center
10:36PM 39.5625 -79.9469 46° Northeast 384 442 35,000  Level Indianapolis Center
10:37PM 39.6344 -79.8439 48° Northeast 385 443 35,000  Level Indianapolis Center
10:38PM 39.7072 -79.7414 47° Northeast 386 444 35,000  Level Indianapolis Center
10:39PM 39.8025 -79.6131 46° Northeast 373 429 35,000  Level Cleveland Center
10:40PM 39.8744 -79.5092 48° Northeast 373 429 35,000  Level Cleveland Center
10:41PM 39.9464 -79.4078 47° Northeast 373 429 35,000  Level Cleveland Center
10:42PM 40.0183 -79.3036 48° Northeast 373 429 35,000  Level Cleveland Center
10:43PM 40.0858 -79.2019 49° Northeast 373 429 35,000  Level Cleveland Center
10:44PM 40.1597 -79.0972 47° Northeast 373 429 35,000  Level Cleveland Center
10:45PM 40.2333 -78.9922 47° Northeast 373 429 35,000  Level Cleveland Center
10:46PM 40.3028 -78.8897 48° Northeast 373 429 35,000  Level Cleveland Center
10:47PM 40.3742 -78.7872 48° Northeast 373 429 35,000  Level Cleveland Center
10:48PM 40.4453 -78.6842 48° Northeast 373 429 35,000  Level Cleveland Center
10:49PM 40.5186 -78.5839 46° Northeast 373 429 35,000  Level Cleveland Center
10:50PM 40.5878 -78.4833 48° Northeast 373 429 35,000  Level Cleveland Center
10:52PM 40.7389 -78.2625 48° Northeast 383 441 35,000  Level New York Center
10:53PM 40.8078 -78.1606 48° Northeast 383 441 35,000 -240 Level New York Center
10:54PM 40.8769 -78.0553 49° Northeast 378 435 34,600 -1,800 Descending New York Center
10:55PM 40.9458 -77.9500 49° Northeast 378 435 31,500 -3,300 Descending New York Center
10:56PM 41.0256 -77.8372 47° Northeast 399 459 28,100 -2,100 Descending New York Center
10:57PM 41.1103 -77.7111 48° Northeast 428 493 27,400 -600 Descending New York Center
10:58PM 41.1919 -77.5928 47° Northeast 440 506 27,000 -240 Descending New York Center
10:59PM 41.2831 -77.4583 48° Northeast 445 512 27,000  Level New York Center
11:00PM 41.3647 -77.3392 48° Northeast 445 512 27,000  Level New York Center
11:01PM 41.4308 -77.2375 49° Northeast 445 512 27,000  Level New York Center
11:02PM 41.5303 -77.0892 48° Northeast 445 512 27,000  Level New York Center
11:03PM 41.6117 -76.9664 48° Northeast 445 512 27,000  Level New York Center
11:04PM 41.6953 -76.8408 48° Northeast 445 512 27,000  Level New York Center
11:07PM 41.8878 -76.5539 48° Northeast 447 514 27,000 -420 Level Boston Center
11:08PM 41.9672 -76.4333 48° Northeast 442 509 25,600 -1,020 Descending Boston Center
11:09PM 42.0444 -76.3153 49° Northeast 437 503 25,000 -840 Descending Boston Center
11:10PM 42.1236 -76.1942 49° Northeast 432 497 24,000 -540 Descending Boston Center
11:11PM 42.1883 -76.0636 56° Northeast 432 497 24,000  Level Boston Center
11:12PM 42.2367 -75.9147 66° East 421 484 24,000  Level Boston Center
11:13PM 42.2847 -75.7714 66° East 421 484 24,000  Level Boston Center
11:14PM 42.3347 -75.6308 64° Northeast 415 478 24,000  Level Boston Center
11:15PM 42.3867 -75.4844 64° Northeast 415 478 24,000  Level Boston Center
11:16PM 42.4342 -75.3378 66° East 415 478 24,000 -900 Level Boston Center
11:17PM 42.4775 -75.1961 67° East 410 472 22,200 -2,160 Descending Boston Center
11:18PM 42.5081 -75.0511 74° East 405 466 19,700 -2,400 Descending Boston Center
11:19PM 42.5342 -74.9083 76° East 394 453 17,400 -2,400 Descending Boston Center
11:20PM 42.5622 -74.7658 75° East 394 453 15,000 -2,280 Descending Boston Center
11:21PM 42.5853 -74.6425 76° East 388 447 12,900 -2,220 Descending Boston Center
11:22PM 42.6214 -74.5028 71° East 362 417 10,700 -1,380 Descending Boston Center
11:23PM 42.6503 -74.4019 69° East 331 381 10,200 -1,140 Descending Boston Center
11:24PM 42.6833 -74.2900 68° East 291 335 8,500 -1,680 Descending Boston Center
11:25PM 42.7097 -74.1975 69° East 286 329 6,900 -1,560 Descending Boston Center
11:26PM 42.7428 -74.0883 68° East 291 335 5,500 -1,200 Descending Boston Center
11:27PM 42.7750 -74.0128 60° Northeast 268 308 4,500 -1,200 Descending Boston Center
11:28PM 42.8158 -73.9289 56° Northeast 256 295 3,200 -780 Descending Boston Center
11:29PM 42.8525 -73.8364 62° Northeast 256 295 3,000 -900 Descending Boston Center
11:30PM 42.8006 -73.8097 159° South 121 139 1,200 -1,080 Descending Boston Center
11:31PM 42.7653 -73.8061 176° South 128 147 500 -720 Descending Boston Center